Latest Weather Observations for Hughenden

IDQ60801

Issued at 11:02 pm EST Friday 22 May 2015 (issued every 30 minutes, with the page automatically refreshed every 10 minutes)

About weather observations | Map of weather stations | Latest weather observations for QLD | Other Formats
Station Details ID: 030022 Name: HUGHENDEN AIRPORT Lat: -20.82 Lon: 144.23 Height: 316.4 m
Data from the previous 72 hours. | See also: Recent months at Hughenden
Date/Time
EST
Temp
°C
App
Temp
°C
Dew
Point
Rel
Hum
%
Delta-T
°C
Wind Press
QNH
hPa
Press
MSL
hPa
Rain
since 9 am
mm
Dir
 
Spd
km/h
Gust
km/h
Spd
kts
Gust
kts
22/11:00pm 10.4 6.4 -2.3 41 4.9 SSE 9 11 5 6 1022.5 1021.4 0.0
22/10:30pm 10.8 6.6 -3.7 36 5.5 SSE 9 11 5 6 1022.6 1021.5 0.0
22/10:00pm 11.7 7.5 -3.6 34 5.8 SSE 9 11 5 6 1022.5 1021.4 0.0
22/09:30pm 12.8 8.3 -3.0 33 6.2 S 11 13 6 7 1022.5 1021.4 0.0
22/09:00pm 13.7 8.9 -2.3 33 6.4 S 13 15 7 8 1022.4 1021.3 0.0
22/08:30pm 14.0 9.6 -2.4 32 6.6 S 11 13 6 7 1022.1 1021.0 0.0
22/08:00pm 14.8 10.1 -2.1 31 6.9 S 13 13 7 7 1021.8 1020.6 0.0
22/07:30pm 15.5 11.0 -2.9 28 7.4 S 11 13 6 7 1021.5 1020.3 0.0
22/07:00pm 16.6 12.2 -2.5 27 7.9 S 11 13 6 7 1021.2 1020.0 0.0
22/06:30pm 17.8 13.8 -2.5 25 8.5 S 9 11 5 6 1020.9 1019.7 0.0
22/06:00pm 19.5 15.1 -2.8 22 9.4 S 11 15 6 8 1020.5 1019.3 0.0
22/05:30pm 21.2 15.6 -2.6 20 10.3 S 17 24 9 13 1020.2 1019.0 0.0
22/05:00pm 22.2 16.6 -3.2 18 10.9 S 17 24 9 13 1019.9 1018.8 0.0
22/04:30pm 22.8 16.5 -4.3 16 11.5 S 20 26 11 14 1019.8 1018.7 0.0
22/04:00pm 23.5 17.6 -2.2 18 11.4 S 19 28 10 15 1019.7 1018.6 0.0
22/03:30pm 23.4 17.6 -1.5 19 11.2 S 19 28 10 15 1019.7 1018.6 0.0
22/03:00pm 23.2 17.4 -1.7 19 11.1 SE 19 30 10 16 1019.8 1018.7 0.0
22/02:30pm 23.1 18.5 -1.1 20 10.9 SSW 13 22 7 12 1019.8 1018.7 0.0
22/02:00pm 22.9 17.2 -0.6 21 10.7 S 19 28 10 15 1020.2 1019.0 0.0
22/01:30pm 22.9 18.7 1.8 25 10.0 S 13 28 7 15 1020.6 1019.4 0.0
22/01:00pm 21.8 17.5 3.0 29 9.1 SSE 15 24 8 13 1021.2 1020.0 0.0
22/12:30pm 21.8 18.5 4.4 32 8.6 SE 11 24 6 13 1021.7 1020.5 0.0
22/12:00pm 20.5 16.0 4.1 34 8.0 ESE 17 28 9 15 1022.2 1021.1 0.0
22/11:30am 20.3 15.5 4.4 35 7.8 SSE 19 28 10 15 1022.7 1021.6 0.0
22/11:00am 19.5 14.7 4.8 38 7.2 SSE 19 30 10 16 1023.2 1022.1 0.0
22/10:30am 20.0 15.1 5.3 38 7.3 SE 20 32 11 17 1023.6 1022.4 0.0
22/10:00am 18.5 13.6 5.0 41 6.6 SSE 20 30 11 16 1023.8 1022.6 0.0
22/09:30am 18.1 13.3 5.7 44 6.2 SSE 20 30 11 16 1023.7 1022.5 0.0
22/09:00am 17.2 12.4 5.8 47 5.6 SSE 20 30 11 16 1023.6 1022.4 -
22/08:30am 16.2 12.1 6.1 51 5.0 SSE 17 20 9 11 1023.4 1022.2 -
22/08:00am 14.9 12.0 6.7 58 4.0 SSE 11 15 6 8 1023.2 1022.1 -
22/07:30am 13.6 11.1 6.7 63 3.4 S 9 11 5 6 1022.9 1021.8 -
22/07:00am 13.0 10.2 6.8 66 3.0 S 11 17 6 9 1022.4 1021.3 -
22/06:30am 13.3 10.5 7.1 66 3.1 S 11 15 6 8 1022.3 1021.2 -
22/06:00am 13.7 10.5 7.0 64 3.3 S 13 17 7 9 1022.1 1021.0 -
22/05:30am 14.2 10.8 7.5 64 3.3 S 15 20 8 11 1021.7 1020.5 -
22/05:00am 14.7 11.4 8.0 64 3.4 S 15 19 8 10 1021.4 1020.2 -
22/04:30am 15.3 11.6 8.1 62 3.7 S 17 24 9 13 1021.2 1020.0 -
22/04:00am 15.9 12.3 8.2 60 3.9 S 17 26 9 14 1021.0 1019.8 -
22/03:30am 15.8 13.0 8.5 62 3.8 S 13 20 7 11 1021.0 1019.8 -
22/03:00am 15.3 14.1 8.1 62 3.7 SSE 4 6 2 3 1021.0 1019.8 -
22/02:30am 15.7 14.0 8.4 62 3.8 SSE 7 9 4 5 1021.0 1019.8 -
22/02:00am 16.1 14.4 8.3 60 4.0 S 7 9 4 5 1021.1 1019.9 -
22/01:30am 16.6 15.1 8.3 58 4.3 S 6 7 3 4 1021.3 1020.1 -
22/01:00am 17.0 15.3 8.4 57 4.5 SE 7 9 4 5 1021.5 1020.3 -
22/12:30am 17.6 15.2 8.7 56 4.7 SSE 11 13 6 7 1021.4 1020.2 -
22/12:00am 18.1 15.3 8.7 54 4.9 SSE 13 19 7 10 1021.5 1020.3 -
 
Date/Time
EST
Temp
°C
App
Temp
°C
Dew
Point
Rel
Hum
%
Delta-T
°C
Wind Press
QNH
hPa
Press
MSL
hPa
Rain
since 9 am
mm
Dir
 
Spd
km/h
Gust
km/h
Spd
kts
Gust
kts
21/11:30pm 18.4 14.9 8.9 54 5.0 SSE 17 24 9 13 1021.5 1020.3 -
21/11:00pm 18.5 14.4 8.5 52 5.2 S 20 32 11 17 1021.7 1020.5 0.0
21/10:30pm 18.9 14.0 8.3 50 5.6 S 24 35 13 19 1021.6 1020.4 0.0
21/10:00pm 19.6 14.4 7.4 45 6.3 S 24 35 13 19 1021.5 1020.3 0.0
21/09:30pm 20.2 15.3 6.9 42 6.8 S 22 37 12 20 1021.3 1020.1 0.0
21/09:00pm 21.1 16.3 8.7 45 6.6 S 24 32 13 17 1020.9 1019.7 0.0
21/08:30pm 21.9 15.5 9.4 45 6.8 S 33 46 18 25 1020.4 1019.2 0.0
21/08:01pm 22.7 17.4 9.8 44 7.1 S 28 48 15 26 1019.9 1018.8 0.0
21/08:00pm 22.8 17.9 9.9 44 7.1 S 26 48 14 26 1019.9 1018.8 0.0
21/07:30pm 23.7 17.5 9.3 40 7.9 S 32 44 17 24 1019.2 1018.1 0.0
21/07:00pm 25.1 18.8 9.0 36 8.8 S 32 43 17 23 1018.5 1017.3 0.0
21/06:47pm 25.7 20.2 9.1 35 9.2 S 28 46 15 25 1018.3 1017.1 0.0
21/06:30pm 26.3 21.2 9.2 34 9.5 SSW 26 37 14 20 1017.9 1016.7 0.0
21/06:00pm 27.3 22.6 9.2 32 10.1 SSW 24 35 13 19 1017.5 1016.3 0.0
21/05:30pm 28.5 23.8 9.2 30 10.8 SSW 24 33 13 18 1017.0 1015.8 0.0
21/05:00pm 29.4 26.0 9.0 28 11.5 SSW 17 24 9 13 1016.8 1015.6 0.0
21/04:30pm 30.0 25.6 9.0 27 11.8 SW 22 28 12 15 1016.5 1015.4 0.0
21/04:00pm 30.4 26.7 9.3 27 12.0 SW 19 26 10 14 1016.4 1015.3 0.0
21/03:30pm 30.2 26.7 8.6 26 12.1 SW 17 22 9 12 1016.3 1015.2 0.0
21/03:00pm 30.5 27.2 9.4 27 12.0 W 17 24 9 13 1016.4 1015.3 0.0
21/02:30pm 30.1 26.7 9.1 27 11.9 SW 17 20 9 11 1016.6 1015.5 0.0
21/02:00pm 30.3 27.3 9.2 27 11.9 SW 15 22 8 12 1016.9 1015.7 0.0
21/01:30pm 30.0 26.7 9.5 28 11.7 SW 17 28 9 15 1017.2 1016.0 0.0
21/01:00pm 29.5 25.5 9.1 28 11.5 SW 20 26 11 14 1017.6 1016.4 0.0
21/12:30pm 29.5 25.6 9.6 29 11.3 SW 20 28 11 15 1018.2 1017.0 0.0
21/12:00pm 28.8 25.6 10.0 31 10.7 SW 17 24 9 13 1018.6 1017.4 0.0
21/11:30am 28.3 25.1 10.0 32 10.4 SW 17 22 9 12 1018.9 1017.7 0.0
21/11:00am 27.9 25.8 11.0 35 9.7 SW 13 17 7 9 1019.2 1018.1 0.0
21/10:30am 27.1 25.0 11.2 37 9.2 WSW 13 20 7 11 1019.4 1018.3 0.0
21/10:00am 26.4 25.1 12.5 42 8.1 WSW 11 17 6 9 1019.6 1018.5 0.0
21/09:30am 25.8 25.3 12.6 44 7.7 WSW 7 13 4 7 1019.5 1018.4 0.0
21/09:00am 24.9 24.6 12.8 47 7.1 N 6 9 3 5 1019.4 1018.3 0.6
21/08:30am 23.6 22.9 13.2 52 6.1 NE 9 15 5 8 1019.1 1018.0 0.6
21/08:00am 22.0 20.7 12.5 54 5.5 ENE 11 15 6 8 1018.8 1017.6 0.6
21/07:30am 20.9 18.5 12.8 60 4.7 NE 17 20 9 11 1018.3 1017.1 0.6
21/07:00am 17.9 15.6 10.5 62 4.0 NE 13 15 7 8 1018.4 1017.2 0.6
21/06:30am 17.0 14.8 9.4 61 4.0 ESE 11 13 6 7 1018.4 1017.2 0.6
21/06:00am 16.8 15.3 9.0 60 4.1 SE 7 9 4 5 1018.2 1017.0 0.6
21/05:30am 17.6 16.2 9.5 59 4.3 SE 7 9 4 5 1017.9 1016.7 0.6
21/05:00am 18.0 15.9 9.9 59 4.3 SE 11 11 6 6 1017.5 1016.3 0.6
21/04:30am 18.4 16.7 10.0 58 4.5 SSE 9 11 5 6 1017.4 1016.2 0.6
21/04:00am 18.5 16.0 9.8 57 4.7 S 13 17 7 9 1017.4 1016.2 0.6
21/03:30am 18.1 16.5 8.9 55 4.9 E 7 9 4 5 1017.4 1016.2 0.6
21/03:00am 19.3 17.5 9.5 53 5.3 ENE 9 11 5 6 1017.4 1016.2 0.6
21/02:30am 19.4 17.8 8.7 50 5.7 ENE 7 11 4 6 1017.6 1016.4 0.6
21/02:00am 20.2 19.0 10.3 53 5.4 SSE 7 9 4 5 1017.5 1016.3 0.6
21/01:30am 21.0 18.9 9.6 48 6.2 E 11 13 6 7 1017.8 1016.6 0.6
21/01:00am 21.7 19.3 9.9 47 6.5 ESE 13 15 7 8 1017.8 1016.6 0.6
21/12:30am 21.7 19.2 9.6 46 6.6 ESE 13 15 7 8 1017.7 1016.5 0.6
21/12:00am 21.8 19.1 9.0 44 6.9 SE 13 15 7 8 1017.6 1016.4 0.6
 
Date/Time
EST
Temp
°C
App
Temp
°C
Dew
Point
Rel
Hum
%
Delta-T
°C
Wind Press
QNH
hPa
Press
MSL
hPa
Rain
since 9 am
mm
Dir
 
Spd
km/h
Gust
km/h
Spd
kts
Gust
kts
20/11:30pm 22.7 20.0 9.1 42 7.4 SE 13 15 7 8 1017.7 1016.5 0.6
20/11:00pm 22.7 19.6 8.8 41 7.5 SE 15 17 8 9 1017.7 1016.5 0.6
20/10:30pm 21.8 19.3 8.0 41 7.3 ESE 11 13 6 7 1017.6 1016.4 0.6
20/10:00pm 21.4 18.8 7.6 41 7.2 SE 11 13 6 7 1017.6 1016.4 0.6
20/09:30pm 21.6 19.1 6.7 38 7.7 SE 9 11 5 6 1017.6 1016.4 0.6
20/09:00pm 22.3 20.0 7.3 38 7.9 SE 9 11 5 6 1017.5 1016.3 0.6
20/08:30pm 23.1 20.6 6.4 34 8.7 SE 9 11 5 6 1017.2 1016.0 0.6
20/08:00pm 24.1 21.7 6.8 33 9.1 SE 9 11 5 6 1016.8 1015.6 0.6
20/07:30pm 24.9 22.6 7.5 33 9.3 SSE 9 11 5 6 1016.4 1015.3 0.6
20/07:00pm 25.8 23.1 7.4 31 9.9 SSE 11 13 6 7 1016.0 1014.8 0.6
20/06:30pm 26.5 23.8 7.5 30 10.3 SSE 11 13 6 7 1015.7 1014.5 0.6
20/06:00pm 28.4 26.5 7.6 27 11.4 SSE 7 9 4 5 1015.4 1014.2 0.6
20/05:30pm 29.9 27.9 7.2 24 12.4 SSE 7 11 4 6 1015.2 1014.0 0.6
20/05:00pm 30.8 28.6 7.9 24 12.7 SE 9 17 5 9 1015.0 1013.8 0.6
20/04:30pm 31.1 28.6 8.2 24 12.8 SSE 11 19 6 10 1014.8 1013.6 0.6
20/04:00pm 31.3 29.1 7.7 23 13.1 SSE 9 17 5 9 1014.7 1013.5 0.6
20/03:30pm 32.0 30.1 8.9 24 13.1 E 9 15 5 8 1014.6 1013.4 0.6
20/03:00pm 31.4 28.7 9.0 25 12.7 SSW 13 17 7 9 1014.8 1013.6 0.2
20/02:30pm 31.6 29.7 9.2 25 12.8 E 9 15 5 8 1015.0 1013.8 0.0
20/02:00pm 31.5 30.0 8.5 24 12.9 N 6 13 3 7 1015.3 1014.1 0.0
20/01:30pm 30.5 27.8 8.8 26 12.2 E 13 19 7 10 1015.8 1014.6 0.0
20/01:00pm 30.4 28.2 9.3 27 12.0 N 11 17 6 9 1016.3 1015.2 0.0
20/12:30pm 30.0 28.2 9.5 28 11.7 NW 9 13 5 7 1017.0 1015.8 0.0
20/12:00pm 29.8 27.2 9.3 28 11.6 SE 13 20 7 11 1017.4 1016.2 0.0
20/11:30am 29.3 26.9 9.9 30 11.1 E 13 24 7 13 1017.7 1016.5 0.0
20/11:00am 29.1 26.3 11.2 33 10.4 ENE 17 28 9 15 1018.1 1016.9 0.0
20/10:30am 27.9 25.9 12.7 39 9.0 NE 15 20 8 11 1018.4 1017.2 0.0
20/10:00am 27.6 25.0 13.9 43 8.3 NE 20 28 11 15 1018.5 1017.3 0.0
20/09:30am 25.8 23.5 14.0 48 7.1 NE 19 24 10 13 1018.7 1017.5 0.0
20/09:00am 24.4 22.1 14.2 53 6.1 NE 19 24 10 13 1018.7 1017.5 0.0
20/08:30am 22.9 20.9 13.9 57 5.3 NE 17 20 9 11 1018.7 1017.5 0.0
20/08:00am 22.0 21.2 14.1 61 4.7 NE 11 15 6 8 1018.7 1017.5 0.0
20/07:30am 20.2 19.8 14.1 68 3.6 ENE 9 15 5 8 1018.3 1017.1 0.0
20/07:00am 16.5 15.1 10.8 69 3.1 ENE 9 11 5 6 1018.1 1016.9 0.0
20/06:30am 15.9 14.7 10.2 69 3.0 E 7 9 4 5 1017.8 1016.6 0.0
20/06:00am 16.1 15.0 10.0 67 3.2 E 6 7 3 4 1017.6 1016.4 0.0
20/05:30am 16.3 14.9 9.7 65 3.5 E 7 9 4 5 1017.4 1016.2 0.0
20/05:00am 17.2 15.8 10.8 66 3.5 E 9 11 5 6 1017.3 1016.1 0.0
20/04:30am 17.4 16.3 10.1 62 3.9 E 6 7 3 4 1017.1 1015.9 0.0
20/04:00am 17.1 15.3 9.5 61 4.0 ESE 9 11 5 6 1017.1 1015.9 0.0
20/03:30am 17.5 15.8 9.7 60 4.2 ESE 9 13 5 7 1017.0 1015.8 0.0
20/03:00am 17.3 15.5 9.5 60 4.1 ESE 9 11 5 6 1016.9 1015.7 0.0
20/02:30am 17.5 15.4 9.7 60 4.2 SSE 11 15 6 8 1016.9 1015.7 0.0
20/02:00am 17.4 15.4 8.8 57 4.5 ESE 9 11 5 6 1016.9 1015.7 0.0
20/01:30am 17.6 15.7 7.6 52 5.1 ESE 7 9 4 5 1017.0 1015.8 0.0
20/01:00am 19.4 18.1 9.9 54 5.1 ESE 7 9 4 5 1017.1 1015.9 0.0
20/12:30am 19.4 17.4 8.7 50 5.7 SE 9 9 5 5 1017.1 1015.9 0.0
20/12:00am 20.5 18.8 9.7 50 5.9 ESE 9 9 5 5 1017.3 1016.1 0.0
 
Date/Time
EST
Temp
°C
App
Temp
°C
Dew
Point
Rel
Hum
%
Delta-T
°C
Wind Press
QNH
hPa
Press
MSL
hPa
Rain
since 9 am
mm
Dir
 
Spd
km/h
Gust
km/h
Spd
kts
Gust
kts
19/11:30pm 20.9 18.7 9.5 48 6.2 ESE 11 13 6 7 1017.5 1016.3 0.0

Other Formats:

Comma delimited format used in spreadsheet applications
http://www.bom.gov.au/fwo/IDQ60801/IDQ60801.94343.axf

JavaScript Object Notation format (JSON) in row-major order
http://www.bom.gov.au/fwo/IDQ60801/IDQ60801.94343.json